Janet — 9HSL8 — position and weather

sailwx.info

Track history (hours):
 
Tides and Currents Weather Stations Pressure Air Temp Water Temp Dewpoint Dewpoint Depression Visibility Wind Speed Wind Dir Waves Ship Positions

Janet

Last reported at 2014-Jul-30 14:22 UTC. Time now 2014-Jul-30 15:21 UTC.
Position N 48°39' W 002°01'.

Length 90 m; draft 5.9 m.

Type: Cargo ship. MMSI: 256371000.

Date/timePositionNaut miles runAvg speedWind from/ knotsBaromVisibWave heightAir tempDewpointWater temp
2014-Jul-30 14:22N 48°39' W 002°01'0 0.0
2014-Jul-30 13:22N 48°39' W 002°01'0 0.0
2014-Jul-30 12:04N 48°39' W 002°01'0 0.0
2014-Jul-30 11:28N 48°39' W 002°01'0 0.0
2014-Jul-30 10:28N 48°39' W 002°01'0 0.0
2014-Jul-30 09:22N 48°39' W 002°01'0 0.0
2014-Jul-30 07:31N 48°39' W 002°01'151 3.0
2014-Jul-28 04:30N 50°36' E 000°24'1111.7
2014-Jul-28 03:33N 50°41' E 000°40'1210.8
2014-Jul-28 02:29N 50°48' E 000°55'11 9.6
2014-Jul-28 01:18N 50°55' E 001°09'8 8.5
2014-Jul-28 00:24N 50°60' E 001°19'12 8.6
2014-Jul-27 23:04N 51°07' E 001°33'5 9.8
2014-Jul-27 22:34N 51°10' E 001°39'1111.3
2014-Jul-27 21:34N 51°19' E 001°50'1312.9
2014-Jul-27 20:34N 51°30' E 002°01'1212.3
2014-Jul-27 19:33N 51°40' E 002°14'1111.5
2014-Jul-27 18:34N 51°48' E 002°26'8010.0
2014-Jul-27 10:33N 52°51' E 003°48'1111.3
2014-Jul-27 09:32N 52°59' E 004°01'1310.7
2014-Jul-27 08:18N 53°07' E 004°18'26 9.1
2014-Jul-27 05:24N 53°29' E 004°42'8 9.2
2014-Jul-27 04:33N 53°32' E 004°54'10 9.9
2014-Jul-27 03:33N 53°36' E 005°10'1111.3
2014-Jul-27 02:33N 53°39' E 005°28'1211.6
2014-Jul-27 01:33N 53°43' E 005°46'6310.0
2014-Jul-26 19:18N 53°60' E 007°29'810.2
2014-Jul-26 18:31N 54°02' E 007°42'1010.4
2014-Jul-26 17:34N 54°00' E 007°59'1111.1
2014-Jul-26 16:32N 54°00' E 008°18'1313.1
2014-Jul-26 15:33N 53°57' E 008°39'1111.3
2014-Jul-26 14:34N 53°51' E 008°55'8 8.2
2014-Jul-26 13:33N 53°54' E 009°09'1 1.4
2014-Jul-26 12:33N 53°55' E 009°10'8 8.0
2014-Jul-26 11:33N 54°01' E 009°18'68 6.8
2014-Jul-26 01:30N 54°36' E 010°59'1010.6
2014-Jul-26 00:34N 54°34' E 011°16'1110.8
2014-Jul-25 23:34N 54°24' E 011°24'1111.1
2014-Jul-25 22:33N 54°13' E 011°27'10 9.7
2014-Jul-25 21:29N 54°03' E 011°25'6 6.7
2014-Jul-25 20:33N 53°57' E 011°25'3 3.1
2014-Jul-25 19:32N 53°54' E 011°28'0 0.0
2014-Jul-25 18:32N 53°54' E 011°28'0 0.0
2014-Jul-25 17:32N 53°54' E 011°28'0 0.0
2014-Jul-25 16:29N 53°54' E 011°28'0 0.0
2014-Jul-25 15:32N 53°54' E 011°28'0 0.0
2014-Jul-25 14:32N 53°54' E 011°28'0 0.0
2014-Jul-25 13:32N 53°54' E 011°28'0 0.0
2014-Jul-25 12:32N 53°54' E 011°28'0 0.0
2014-Jul-25 11:32N 53°54' E 011°28'0 0.0
2014-Jul-25 10:32N 53°54' E 011°28'0 0.0
2014-Jul-25 09:32N 53°54' E 011°28'0 0.0
2014-Jul-25 08:32N 53°54' E 011°28'0 0.0
2014-Jul-25 07:32N 53°54' E 011°28'0 0.0
2014-Jul-25 06:32N 53°54' E 011°28'0 0.0
2014-Jul-25 05:32N 53°54' E 011°28'0 0.0
2014-Jul-25 04:32N 53°54' E 011°28'0 0.0
2014-Jul-25 03:32N 53°54' E 011°28'0 0.0
2014-Jul-25 02:32N 53°54' E 011°28'0 0.0
2014-Jul-25 01:32N 53°54' E 011°28'0 0.0
2014-Jul-25 00:32N 53°54' E 011°28'0 0.0
2014-Jul-24 23:32N 53°54' E 011°28'0 0.0
2014-Jul-24 22:32N 53°54' E 011°28'0 0.0
2014-Jul-24 21:32N 53°54' E 011°28'0 0.0
2014-Jul-24 20:32N 53°54' E 011°28'0 0.0
2014-Jul-24 19:32N 53°54' E 011°28'0 0.0
2014-Jul-24 18:32N 53°54' E 011°28'0 0.0
2014-Jul-24 17:32N 53°54' E 011°28'5 4.9
2014-Jul-24 16:33N 53°58' E 011°22'7 7.0
2014-Jul-24 15:33N 54°04' E 011°27'3 3.1
2014-Jul-24 14:33N 54°06' E 011°22'0 0.0
2014-Jul-24 13:33N 54°06' E 011°22'0 0.0
2014-Jul-24 12:33N 54°06' E 011°22'0 0.0
2014-Jul-24 11:33N 54°06' E 011°22'0 0.0
2014-Jul-24 10:33N 54°06' E 011°22'0 0.0
2014-Jul-24 09:33N 54°06' E 011°22'0 0.0
2014-Jul-24 08:33N 54°06' E 011°22'0 0.0
2014-Jul-24 07:33N 54°06' E 011°22'0 0.0
2014-Jul-24 06:33N 54°06' E 011°22'0 0.0
2014-Jul-24 05:33N 54°06' E 011°22'0 0.0
2014-Jul-24 04:33N 54°06' E 011°22'6 6.2
2014-Jul-24 03:33N 54°12' E 011°24'8 7.8
2014-Jul-24 02:33N 54°20' E 011°23'8 8.0
2014-Jul-24 01:33N 54°28' E 011°22'8 7.6
2014-Jul-24 00:33N 54°34' E 011°14'8 7.7
2014-Jul-23 23:30N 54°35' E 011°00'38 7.5
2014-Jul-23 18:28N 54°57' E 010°08'8 8.6
2014-Jul-23 17:33N 55°04' E 010°00'9 8.9
2014-Jul-23 16:33N 55°10' E 009°49'  
Track history (hours):
 
Tides and Currents Weather Stations Pressure Air Temp Water Temp Dewpoint Dewpoint Depression Visibility Wind Speed Wind Dir Waves Ship Positions

Janet

Last reported at 2014-Jul-30 14:22 UTC. Time now 2014-Jul-30 15:21 UTC.
Position N 48°39' W 002°01'.

Length 90 m; draft 5.9 m.

Type: Cargo ship. MMSI: 256371000.

Date/timePositionNaut miles runAvg speedWind from/ knotsBaromVisibWave heightAir tempDewpointWater temp
2014-Jul-30 14:22N 48°39' W 002°01'0 0.0
2014-Jul-30 13:22N 48°39' W 002°01'0 0.0
2014-Jul-30 12:04N 48°39' W 002°01'0 0.0
2014-Jul-30 11:28N 48°39' W 002°01'0 0.0
2014-Jul-30 10:28N 48°39' W 002°01'0 0.0
2014-Jul-30 09:22N 48°39' W 002°01'0 0.0
2014-Jul-30 07:31N 48°39' W 002°01'151 3.0
2014-Jul-28 04:30N 50°36' E 000°24'1111.7
2014-Jul-28 03:33N 50°41' E 000°40'1210.8
2014-Jul-28 02:29N 50°48' E 000°55'11 9.6
2014-Jul-28 01:18N 50°55' E 001°09'8 8.5
2014-Jul-28 00:24N 50°60' E 001°19'12 8.6
2014-Jul-27 23:04N 51°07' E 001°33'5 9.8
2014-Jul-27 22:34N 51°10' E 001°39'1111.3
2014-Jul-27 21:34N 51°19' E 001°50'1312.9
2014-Jul-27 20:34N 51°30' E 002°01'1212.3
2014-Jul-27 19:33N 51°40' E 002°14'1111.5
2014-Jul-27 18:34N 51°48' E 002°26'8010.0
2014-Jul-27 10:33N 52°51' E 003°48'1111.3
2014-Jul-27 09:32N 52°59' E 004°01'1310.7
2014-Jul-27 08:18N 53°07' E 004°18'26 9.1
2014-Jul-27 05:24N 53°29' E 004°42'8 9.2
2014-Jul-27 04:33N 53°32' E 004°54'10 9.9
2014-Jul-27 03:33N 53°36' E 005°10'1111.3
2014-Jul-27 02:33N 53°39' E 005°28'1211.6
2014-Jul-27 01:33N 53°43' E 005°46'6310.0
2014-Jul-26 19:18N 53°60' E 007°29'810.2
2014-Jul-26 18:31N 54°02' E 007°42'1010.4
2014-Jul-26 17:34N 54°00' E 007°59'1111.1
2014-Jul-26 16:32N 54°00' E 008°18'1313.1
2014-Jul-26 15:33N 53°57' E 008°39'1111.3
2014-Jul-26 14:34N 53°51' E 008°55'8 8.2
2014-Jul-26 13:33N 53°54' E 009°09'1 1.4
2014-Jul-26 12:33N 53°55' E 009°10'8 8.0
2014-Jul-26 11:33N 54°01' E 009°18'68 6.8
2014-Jul-26 01:30N 54°36' E 010°59'1010.6
2014-Jul-26 00:34N 54°34' E 011°16'1110.8
2014-Jul-25 23:34N 54°24' E 011°24'1111.1
2014-Jul-25 22:33N 54°13' E 011°27'10 9.7
2014-Jul-25 21:29N 54°03' E 011°25'6 6.7
2014-Jul-25 20:33N 53°57' E 011°25'3 3.1
2014-Jul-25 19:32N 53°54' E 011°28'0 0.0
2014-Jul-25 18:32N 53°54' E 011°28'0 0.0
2014-Jul-25 17:32N 53°54' E 011°28'0 0.0
2014-Jul-25 16:29N 53°54' E 011°28'0 0.0
2014-Jul-25 15:32N 53°54' E 011°28'0 0.0
2014-Jul-25 14:32N 53°54' E 011°28'0 0.0
2014-Jul-25 13:32N 53°54' E 011°28'0 0.0
2014-Jul-25 12:32N 53°54' E 011°28'0 0.0
2014-Jul-25 11:32N 53°54' E 011°28'0 0.0
2014-Jul-25 10:32N 53°54' E 011°28'0 0.0
2014-Jul-25 09:32N 53°54' E 011°28'0 0.0
2014-Jul-25 08:32N 53°54' E 011°28'0 0.0
2014-Jul-25 07:32N 53°54' E 011°28'0 0.0
2014-Jul-25 06:32N 53°54' E 011°28'0 0.0
2014-Jul-25 05:32N 53°54' E 011°28'0 0.0
2014-Jul-25 04:32N 53°54' E 011°28'0 0.0
2014-Jul-25 03:32N 53°54' E 011°28'0 0.0
2014-Jul-25 02:32N 53°54' E 011°28'0 0.0
2014-Jul-25 01:32N 53°54' E 011°28'0 0.0
2014-Jul-25 00:32N 53°54' E 011°28'0 0.0
2014-Jul-24 23:32N 53°54' E 011°28'0 0.0
2014-Jul-24 22:32N 53°54' E 011°28'0 0.0
2014-Jul-24 21:32N 53°54' E 011°28'0 0.0
2014-Jul-24 20:32N 53°54' E 011°28'0 0.0
2014-Jul-24 19:32N 53°54' E 011°28'0 0.0
2014-Jul-24 18:32N 53°54' E 011°28'0 0.0
2014-Jul-24 17:32N 53°54' E 011°28'5 4.9
2014-Jul-24 16:33N 53°58' E 011°22'7 7.0
2014-Jul-24 15:33N 54°04' E 011°27'3 3.1
2014-Jul-24 14:33N 54°06' E 011°22'0 0.0
2014-Jul-24 13:33N 54°06' E 011°22'0 0.0
2014-Jul-24 12:33N 54°06' E 011°22'0 0.0
2014-Jul-24 11:33N 54°06' E 011°22'0 0.0
2014-Jul-24 10:33N 54°06' E 011°22'0 0.0
2014-Jul-24 09:33N 54°06' E 011°22'0 0.0
2014-Jul-24 08:33N 54°06' E 011°22'0 0.0
2014-Jul-24 07:33N 54°06' E 011°22'0 0.0
2014-Jul-24 06:33N 54°06' E 011°22'0 0.0
2014-Jul-24 05:33N 54°06' E 011°22'0 0.0
2014-Jul-24 04:33N 54°06' E 011°22'6 6.2
2014-Jul-24 03:33N 54°12' E 011°24'8 7.8
2014-Jul-24 02:33N 54°20' E 011°23'8 8.0
2014-Jul-24 01:33N 54°28' E 011°22'8 7.6
2014-Jul-24 00:33N 54°34' E 011°14'8 7.7
2014-Jul-23 23:30N 54°35' E 011°00'38 7.5
2014-Jul-23 18:28N 54°57' E 010°08'8 8.6
2014-Jul-23 17:33N 55°04' E 010°00'9 8.9
2014-Jul-23 16:33N 55°10' E 009°49'  

Dump ship's entire track history